Newtownstewart, United Kingdom
Current Conditions -  °F | °C
As of 3:50 PM on Thursday 18 Dec 2014 (Local Time) from EGAE Reporting Station
Rain Showers Rain Showers  
Wind Chill: 42°   Ceiling: 1900
Heat Index: 48°   Visibility: 6mi
Dew Point: 45°   Wind: 17mph
Humidity: 87%   Direction: 250°WSW
Pressure: 29.47"   Gusts: NA
Location:  54.72°N, 7.38°W
Report Text: EGAE 181550Z 25015KT 9999 VCSH FEW009 BKN019 09/07 Q0998
Loading
Personal Weather Stations






























Interactive Weather Map New forecast layout! Learn more

10-Day Weather Forecast

Advertisements
Track Severe Weather on mobile